createdAt,value
2019-03-31T00:00:02.019Z,7.00
2019-03-31T00:02:59.849Z,6.90
2019-03-31T00:05:36.960Z,6.80
2019-03-31T00:08:18.498Z,6.70
2019-03-31T00:10:52.123Z,6.60
2019-03-31T00:13:30.834Z,6.60
2019-03-31T00:16:05.411Z,6.60
2019-03-31T00:18:39.119Z,6.60
2019-03-31T00:21:12.827Z,6.60
2019-03-31T00:24:01.653Z,5.60
2019-03-31T00:26:35.350Z,6.40
2019-03-31T00:29:08.935Z,6.40
2019-03-31T00:31:49.203Z,6.50
2019-03-31T00:34:23.283Z,6.40
2019-03-31T00:37:02.107Z,6.40
2019-03-31T00:39:39.091Z,6.40
2019-03-31T00:42:12.713Z,6.40
2019-03-31T00:44:58.573Z,6.50
2019-03-31T00:47:32.240Z,6.50
2019-03-31T00:50:32.763Z,6.50
2019-03-31T00:53:06.378Z,6.50
2019-03-31T00:55:43.247Z,6.60
2019-03-31T00:58:16.917Z,6.60
2019-03-31T01:01:06.176Z,6.60
2019-03-31T01:03:39.950Z,6.70
2019-03-31T01:06:15.709Z,6.70
2019-03-31T01:08:51.726Z,6.70
2019-03-31T01:11:25.771Z,6.80
2019-03-31T01:13:59.733Z,6.80
2019-03-31T01:16:53.969Z,6.90
2019-03-31T01:19:27.832Z,6.90
2019-03-31T01:22:03.412Z,6.90
2019-03-31T01:24:37.144Z,6.90
2019-03-31T01:27:11.072Z,6.90
2019-03-31T01:29:44.694Z,6.90
2019-03-31T01:32:35.576Z,6.90
2019-03-31T01:35:10.322Z,6.90
2019-03-31T01:37:47.356Z,6.90
2019-03-31T01:40:36.486Z,6.90
2019-03-31T01:43:10.212Z,6.90
2019-03-31T01:45:43.850Z,6.90
2019-03-31T01:48:29.504Z,6.90
2019-03-31T01:51:03.297Z,6.80
2019-03-31T01:53:42.821Z,6.80
2019-03-31T01:56:16.554Z,6.80
2019-03-31T01:58:55.324Z,6.80
2019-03-31T02:01:28.978Z,6.90
2019-03-31T02:04:07.712Z,6.90
2019-03-31T02:06:41.380Z,6.90
2019-03-31T02:09:17.299Z,6.90
2019-03-31T02:11:50.929Z,6.80
2019-03-31T02:14:31.447Z,6.90
2019-03-31T02:17:05.246Z,6.90
2019-03-31T02:19:38.806Z,6.90
2019-03-31T02:22:21.108Z,6.90
2019-03-31T02:24:54.726Z,6.90
2019-03-31T02:27:33.059Z,6.90
2019-03-31T02:30:08.366Z,6.90
2019-03-31T02:32:45.886Z,7.00
2019-03-31T02:35:19.520Z,7.00
2019-03-31T02:38:00.593Z,7.00
2019-03-31T02:40:39.583Z,7.10
2019-03-31T02:43:13.244Z,7.10
2019-03-31T02:45:49.203Z,7.20
2019-03-31T02:48:22.862Z,7.20
2019-03-31T02:51:00.653Z,7.30
2019-03-31T02:53:34.416Z,7.30
2019-03-31T02:56:12.130Z,7.30
2019-03-31T02:58:46.837Z,7.40
2019-03-31T03:01:27.477Z,7.40
2019-03-31T03:04:02.183Z,7.40
2019-03-31T03:06:36.868Z,7.40
2019-03-31T03:09:12.106Z,7.40
2019-03-31T03:11:47.256Z,7.40
2019-03-31T03:14:27.699Z,7.40
2019-03-31T03:17:01.468Z,7.40
2019-03-31T03:19:42.747Z,7.40
2019-03-31T03:22:16.457Z,7.40
2019-03-31T03:24:50.109Z,7.30
2019-03-31T03:27:28.886Z,7.30
2019-03-31T03:30:02.583Z,7.20
2019-03-31T03:33:12.569Z,7.20
2019-03-31T03:35:20.161Z,7.20
2019-03-31T03:37:53.800Z,7.10
2019-03-31T03:40:27.396Z,7.10
2019-03-31T03:43:02.216Z,7.10
2019-03-31T03:45:35.919Z,7.10
2019-03-31T03:48:14.108Z,7.00
2019-03-31T03:50:47.847Z,7.00
2019-03-31T03:53:27.828Z,7.00
2019-03-31T03:56:01.599Z,7.00
2019-03-31T03:58:44.805Z,7.00
2019-03-31T04:01:19.765Z,7.00
2019-03-31T04:03:57.729Z,7.00
2019-03-31T04:06:31.466Z,7.00
2019-03-31T04:09:06.556Z,7.00
2019-03-31T04:11:40.236Z,7.00
2019-03-31T04:14:43.596Z,6.90
2019-03-31T04:17:17.195Z,6.80
2019-03-31T04:19:50.818Z,6.70
2019-03-31T04:22:24.402Z,6.70
2019-03-31T04:25:01.404Z,6.50
2019-03-31T04:27:35.047Z,6.40
2019-03-31T04:30:15.474Z,6.40
2019-03-31T04:32:49.267Z,6.40
2019-03-31T04:35:29.323Z,6.40
2019-03-31T04:38:02.918Z,6.40
2019-03-31T04:40:46.254Z,6.40
2019-03-31T04:43:43.377Z,6.40
2019-03-31T04:46:17.068Z,6.40
2019-03-31T04:49:02.918Z,6.30
2019-03-31T04:51:36.626Z,6.20
2019-03-31T04:54:10.589Z,6.20
2019-03-31T04:56:44.186Z,6.10
2019-03-31T04:59:42.184Z,6.10
2019-03-31T05:02:15.766Z,6.00
2019-03-31T05:05:34.865Z,5.90
2019-03-31T05:08:08.447Z,5.90
2019-03-31T05:10:48.135Z,5.90
2019-03-31T05:13:21.752Z,5.90
2019-03-31T05:16:01.323Z,5.90
2019-03-31T05:18:34.987Z,6.00
2019-03-31T05:21:20.663Z,6.00
2019-03-31T05:23:54.240Z,6.00
2019-03-31T05:26:30.318Z,6.00
2019-03-31T05:29:03.918Z,6.10
2019-03-31T05:31:37.542Z,6.20
2019-03-31T05:34:19.773Z,6.20
2019-03-31T05:36:53.487Z,6.30
2019-03-31T05:39:27.096Z,6.30
2019-03-31T05:42:08.620Z,6.40
2019-03-31T05:44:42.363Z,6.50
2019-03-31T05:47:16.052Z,6.60
2019-03-31T05:49:53.018Z,6.60
2019-03-31T05:52:26.620Z,6.70
2019-03-31T05:55:02.923Z,6.80
2019-03-31T05:57:36.541Z,6.80
2019-03-31T06:00:30.599Z,6.80
2019-03-31T06:03:04.640Z,6.80
2019-03-31T06:05:48.601Z,6.80
2019-03-31T06:08:22.304Z,6.70
2019-03-31T06:10:56.013Z,6.70
2019-03-31T06:13:29.834Z,6.60
2019-03-31T06:16:03.479Z,6.60
2019-03-31T06:18:37.686Z,6.50
2019-03-31T06:21:11.282Z,6.50
2019-03-31T06:23:47.914Z,6.50
2019-03-31T06:26:21.448Z,6.60
2019-03-31T06:29:00.272Z,6.70
2019-03-31T06:31:34.023Z,6.80
2019-03-31T06:34:07.614Z,6.90
2019-03-31T06:36:41.356Z,6.90
2019-03-31T06:39:14.951Z,7.10
2019-03-31T06:41:50.607Z,7.30
2019-03-31T06:44:30.367Z,7.50
2019-03-31T06:47:03.948Z,7.60
2019-03-31T06:49:47.024Z,8.00
2019-03-31T06:52:22.918Z,8.20
2019-03-31T06:54:56.501Z,8.50
2019-03-31T06:57:33.262Z,8.80
2019-03-31T07:00:07.953Z,8.80
2019-03-31T07:02:51.389Z,8.70
2019-03-31T07:05:25.093Z,8.90
2019-03-31T07:08:06.167Z,9.50
2019-03-31T07:10:39.906Z,10.30
2019-03-31T07:13:17.935Z,11.00
2019-03-31T07:15:52.181Z,11.00
2019-03-31T07:18:28.239Z,10.50
2019-03-31T07:21:02.452Z,10.40
2019-03-31T07:23:43.498Z,10.60
2019-03-31T07:26:17.903Z,11.10
2019-03-31T07:28:51.509Z,11.40
2019-03-31T07:31:25.985Z,10.90
2019-03-31T07:34:00.274Z,10.40
2019-03-31T07:36:34.726Z,10.20
2019-03-31T07:39:09.282Z,9.80
2019-03-31T07:41:55.880Z,9.60
2019-03-31T07:44:34.085Z,9.60
2019-03-31T07:47:08.266Z,10.10
2019-03-31T07:49:45.875Z,10.00
2019-03-31T07:52:20.129Z,10.00
2019-03-31T07:54:56.092Z,10.10
2019-03-31T07:57:30.323Z,10.10
2019-03-31T08:00:07.646Z,9.60
2019-03-31T08:02:41.886Z,10.30
2019-03-31T08:05:32.460Z,11.40
2019-03-31T08:07:57.232Z,12.20
2019-03-31T08:10:35.667Z,12.60
2019-03-31T08:13:09.862Z,12.70
2019-03-31T08:16:03.433Z,12.70
2019-03-31T08:18:37.776Z,11.20
2019-03-31T08:21:12.014Z,12.30
2019-03-31T08:23:49.607Z,11.50
2019-03-31T08:26:23.779Z,11.30
2019-03-31T08:29:04.644Z,12.60
2019-03-31T08:31:38.906Z,13.60
2019-03-31T08:34:13.554Z,13.60
2019-03-31T08:36:47.755Z,14.50
2019-03-31T08:39:26.646Z,12.90
2019-03-31T08:42:00.855Z,11.50
2019-03-31T08:44:35.004Z,12.40
2019-03-31T08:47:17.079Z,12.60
2019-03-31T08:49:51.237Z,12.30
2019-03-31T08:52:27.795Z,12.20
2019-03-31T08:55:02.187Z,12.00
2019-03-31T08:57:37.645Z,11.80
2019-03-31T09:00:13.996Z,11.80
2019-03-31T09:03:00.673Z,11.90
2019-03-31T09:05:34.894Z,12.70
2019-03-31T09:08:21.120Z,13.00
2019-03-31T09:10:55.318Z,12.80
2019-03-31T09:13:38.694Z,13.30
2019-03-31T09:16:13.079Z,12.80
2019-03-31T09:18:47.246Z,13.00
2019-03-31T09:21:56.771Z,13.60
2019-03-31T09:24:31.204Z,13.70
2019-03-31T09:27:05.566Z,14.50
2019-03-31T09:29:40.141Z,14.90
2019-03-31T09:32:28.102Z,14.50
2019-03-31T09:35:02.331Z,14.90
2019-03-31T09:37:51.652Z,13.90
2019-03-31T09:40:25.909Z,14.70
2019-03-31T09:43:00.384Z,15.20
2019-03-31T09:45:46.815Z,14.50
2019-03-31T09:48:21.110Z,13.70
2019-03-31T09:51:01.162Z,14.50
2019-03-31T09:53:35.708Z,13.60
2019-03-31T09:56:22.158Z,13.80
2019-03-31T09:58:56.329Z,14.00
2019-03-31T10:01:51.476Z,14.10
2019-03-31T10:04:25.720Z,14.10
2019-03-31T10:07:03.315Z,14.50
2019-03-31T10:09:38.539Z,14.70
2019-03-31T10:12:12.936Z,16.00
2019-03-31T10:14:47.183Z,16.30
2019-03-31T10:17:28.720Z,15.00
2019-03-31T10:20:03.135Z,16.00
2019-03-31T10:22:57.433Z,15.80
2019-03-31T10:25:31.760Z,15.40
2019-03-31T10:28:36.943Z,15.70
2019-03-31T10:31:11.193Z,15.90
2019-03-31T10:36:23.760Z,14.30
2019-03-31T10:38:57.933Z,14.30
2019-03-31T10:41:33.467Z,14.30
2019-03-31T10:44:07.715Z,14.40
2019-03-31T10:46:41.860Z,14.80
2019-03-31T10:49:16.486Z,14.20
2019-03-31T10:51:50.671Z,13.90
2019-03-31T10:54:24.952Z,14.40
2019-03-31T10:56:59.139Z,14.90
2019-03-31T10:59:33.275Z,14.40
2019-03-31T11:02:07.694Z,13.90
2019-03-31T11:04:41.877Z,14.10
2019-03-31T11:07:16.147Z,14.10
2019-03-31T11:09:50.338Z,14.60
2019-03-31T11:12:24.496Z,13.90
2019-03-31T11:17:36.258Z,13.60
2019-03-31T11:20:11.756Z,13.70
2019-03-31T11:22:53.539Z,13.50
2019-03-31T11:25:29.311Z,13.70
2019-03-31T11:28:03.524Z,14.00
2019-03-31T11:30:37.743Z,13.70
2019-03-31T11:33:11.932Z,13.80
2019-03-31T11:35:46.078Z,13.70
2019-03-31T11:38:20.184Z,13.50
2019-03-31T11:40:55.551Z,13.20
2019-03-31T11:43:31.286Z,13.50
2019-03-31T11:46:05.464Z,13.50
2019-03-31T11:48:39.608Z,13.20
2019-03-31T11:51:13.727Z,12.90
2019-03-31T11:53:51.457Z,12.60
2019-03-31T11:56:25.730Z,12.60
2019-03-31T11:59:20.715Z,12.60
2019-03-31T12:01:53.903Z,12.20
2019-03-31T12:04:57.093Z,11.90
2019-03-31T12:07:45.678Z,12.60
2019-03-31T12:10:07.545Z,12.70
2019-03-31T12:12:41.804Z,12.40
2019-03-31T12:15:16.006Z,11.90
2019-03-31T12:17:50.287Z,11.90
2019-03-31T12:20:28.367Z,11.80
2019-03-31T12:23:02.055Z,12.00
2019-03-31T12:25:57.463Z,11.70
2019-03-31T12:28:31.776Z,11.60
2019-03-31T12:31:05.987Z,11.60
2019-03-31T12:33:49.684Z,11.60
2019-03-31T12:36:23.958Z,11.40
2019-03-31T12:39:27.090Z,11.80
2019-03-31T12:42:01.389Z,11.50
2019-03-31T12:44:57.370Z,11.50
2019-03-31T12:47:31.679Z,11.30
2019-03-31T12:50:27.472Z,11.20
2019-03-31T12:53:02.086Z,11.50
2019-03-31T12:55:36.327Z,11.50
2019-03-31T12:58:26.358Z,11.70
2019-03-31T13:01:00.634Z,11.30
2019-03-31T13:03:52.119Z,11.10
2019-03-31T13:06:26.455Z,11.10
2019-03-31T13:09:05.485Z,11.10
2019-03-31T13:11:39.200Z,10.70
2019-03-31T13:14:16.610Z,10.80
2019-03-31T13:16:51.177Z,10.70
2019-03-31T13:19:28.602Z,10.30
2019-03-31T13:22:02.297Z,10.10
2019-03-31T13:24:44.405Z,10.40
2019-03-31T13:27:18.071Z,10.10
2019-03-31T13:29:59.241Z,10.40
2019-03-31T13:32:32.862Z,10.50
2019-03-31T13:35:08.726Z,10.30
2019-03-31T13:37:42.503Z,10.10
2019-03-31T13:40:16.277Z,10.10
2019-03-31T13:42:55.041Z,9.80
2019-03-31T13:45:28.781Z,9.80
2019-03-31T13:48:09.759Z,10.00
2019-03-31T13:50:43.459Z,9.90
2019-03-31T13:53:17.118Z,9.80
2019-03-31T13:55:50.810Z,9.70
2019-03-31T13:58:25.515Z,9.50
2019-03-31T14:01:08.532Z,9.50
2019-03-31T14:03:42.130Z,9.70
2019-03-31T14:06:15.833Z,9.70
2019-03-31T14:08:54.016Z,9.50
2019-03-31T14:11:27.740Z,9.50
2019-03-31T14:14:18.785Z,9.40
2019-03-31T14:16:52.432Z,9.40
2019-03-31T14:19:31.100Z,9.20
2019-03-31T14:22:04.862Z,9.20
2019-03-31T14:24:38.563Z,9.10
2019-03-31T14:27:24.523Z,9.30
2019-03-31T14:29:58.123Z,9.30
2019-03-31T14:32:32.306Z,9.20
2019-03-31T14:35:06.318Z,9.20
2019-03-31T14:37:41.583Z,9.10
2019-03-31T14:40:15.241Z,9.20
2019-03-31T14:43:01.618Z,9.10
2019-03-31T14:45:35.854Z,9.00
2019-03-31T14:48:17.874Z,8.90
2019-03-31T14:50:51.511Z,8.80
2019-03-31T14:53:33.255Z,8.70
2019-03-31T14:56:06.878Z,8.80
2019-03-31T14:58:40.546Z,9.00
2019-03-31T15:01:21.815Z,8.90
2019-03-31T15:03:55.426Z,9.00
2019-03-31T15:06:33.790Z,8.90
2019-03-31T15:09:08.743Z,8.80
2019-03-31T15:11:48.942Z,8.80
2019-03-31T15:14:22.538Z,8.70
2019-03-31T15:17:04.879Z,8.70
2019-03-31T15:19:38.481Z,8.60
2019-03-31T15:22:15.742Z,8.50
2019-03-31T15:24:49.435Z,8.50
2019-03-31T15:27:30.484Z,8.50
2019-03-31T15:30:06.551Z,8.40
2019-03-31T15:32:41.263Z,8.40
2019-03-31T15:35:15.135Z,8.20
2019-03-31T15:37:52.014Z,8.20
2019-03-31T15:40:25.711Z,8.10
2019-03-31T15:42:59.366Z,8.10
2019-03-31T15:45:35.418Z,8.00
2019-03-31T15:48:09.054Z,8.00
2019-03-31T15:50:55.582Z,8.00
2019-03-31T15:56:05.858Z,7.90
2019-03-31T15:58:46.922Z,7.80
2019-03-31T16:01:20.547Z,7.80
2019-03-31T16:04:02.989Z,7.70
2019-03-31T16:06:36.585Z,7.70
2019-03-31T16:09:22.936Z,7.70
2019-03-31T16:11:54.024Z,7.70
2019-03-31T16:14:27.125Z,7.60
2019-03-31T16:17:00.854Z,7.60
2019-03-31T16:19:37.418Z,7.50
2019-03-31T16:22:11.114Z,7.40
2019-03-31T16:24:52.598Z,7.40
2019-03-31T16:27:26.382Z,7.30
2019-03-31T16:30:09.058Z,7.30
2019-03-31T16:32:42.724Z,7.30
2019-03-31T16:35:16.879Z,7.20
2019-03-31T16:37:50.539Z,7.20
2019-03-31T16:40:29.302Z,7.10
2019-03-31T16:43:03.051Z,7.00
2019-03-31T16:45:38.988Z,7.00
2019-03-31T16:48:12.666Z,6.90
2019-03-31T16:50:58.949Z,6.90
2019-03-31T16:53:32.525Z,6.80
2019-03-31T16:56:09.258Z,6.80
2019-03-31T16:58:48.018Z,6.70
2019-03-31T17:01:21.645Z,6.60
2019-03-31T17:04:00.337Z,6.60
2019-03-31T17:09:10.318Z,6.40
2019-03-31T17:11:44.013Z,6.30
2019-03-31T17:14:17.649Z,6.30
2019-03-31T17:16:51.417Z,6.20
2019-03-31T17:19:26.381Z,6.20
2019-03-31T17:22:00.095Z,6.10
2019-03-31T17:24:40.897Z,6.00
2019-03-31T17:27:14.602Z,6.00
2019-03-31T17:29:48.253Z,5.80
2019-03-31T17:32:40.872Z,5.70
2019-03-31T17:35:14.470Z,5.70
2019-03-31T17:37:49.343Z,5.60
2019-03-31T17:40:23.076Z,5.50
2019-03-31T17:43:06.200Z,5.50
2019-03-31T17:45:39.798Z,5.40
2019-03-31T17:48:21.452Z,5.40
2019-03-31T17:50:55.125Z,5.30
2019-03-31T17:53:28.802Z,5.20
2019-03-31T17:56:02.482Z,5.10
2019-03-31T17:58:42.278Z,5.00
2019-03-31T18:01:15.908Z,5.00
2019-03-31T18:03:59.128Z,4.90
2019-03-31T18:06:32.766Z,4.90
2019-03-31T18:09:10.579Z,4.70
2019-03-31T18:11:44.544Z,4.60
2019-03-31T18:14:25.828Z,4.50
2019-03-31T18:16:59.437Z,4.40
2019-03-31T18:19:37.304Z,4.20
2019-03-31T18:22:16.737Z,4.10
2019-03-31T18:24:50.032Z,3.90
2019-03-31T18:27:23.717Z,3.90
2019-03-31T18:30:04.789Z,3.80
2019-03-31T18:32:38.409Z,3.70
2019-03-31T18:35:16.952Z,3.60
2019-03-31T18:37:51.196Z,3.30
2019-03-31T18:40:35.108Z,3.30
2019-03-31T18:43:05.541Z,3.20
2019-03-31T18:45:41.857Z,3.10
2019-03-31T18:48:15.442Z,3.00
2019-03-31T18:50:51.611Z,2.90
2019-03-31T18:56:32.449Z,2.80
2019-03-31T19:05:04.296Z,2.60
2019-03-31T19:07:39.595Z,2.50
2019-03-31T19:10:28.528Z,2.50
2019-03-31T19:13:21.563Z,2.50
2019-03-31T19:15:57.229Z,2.50
2019-03-31T19:18:38.642Z,2.40
2019-03-31T19:21:16.292Z,2.40
2019-03-31T19:26:49.016Z,2.10
2019-03-31T19:29:33.639Z,2.10
2019-03-31T19:32:09.304Z,2.00
2019-03-31T19:34:47.276Z,2.00
2019-03-31T19:40:19.997Z,1.80
2019-03-31T19:43:17.660Z,1.70
2019-03-31T19:45:52.959Z,1.60
2019-03-31T19:48:52.272Z,1.50
2019-03-31T19:51:27.536Z,1.60
2019-03-31T19:54:14.460Z,1.50
2019-03-31T19:56:52.323Z,1.40
2019-03-31T19:59:36.463Z,1.50
2019-03-31T20:02:31.116Z,1.50
2019-03-31T20:05:22.206Z,1.50
2019-03-31T20:11:14.572Z,1.30
2019-03-31T20:14:04.514Z,1.20
2019-03-31T20:16:55.018Z,1.10
2019-03-31T20:22:43.024Z,1.10
2019-03-31T20:28:08.309Z,1.00
2019-03-31T20:31:00.708Z,0.90
2019-03-31T20:33:38.503Z,0.90
2019-03-31T20:36:29.720Z,0.90
2019-03-31T20:39:15.367Z,0.90
2019-03-31T20:42:04.619Z,0.80
2019-03-31T20:44:47.763Z,0.80
2019-03-31T20:47:21.424Z,0.70
2019-03-31T20:50:08.526Z,0.70
2019-03-31T20:52:42.162Z,0.70
2019-03-31T20:55:17.086Z,0.70
2019-03-31T20:57:50.870Z,0.60
2019-03-31T21:00:34.001Z,0.60
2019-03-31T21:03:17.295Z,0.60
2019-03-31T21:05:50.894Z,0.60
2019-03-31T21:08:28.051Z,0.60
2019-03-31T21:11:01.642Z,0.60
2019-03-31T21:13:35.347Z,0.50
2019-03-31T21:16:18.107Z,0.50
2019-03-31T21:18:51.886Z,0.50
2019-03-31T21:21:29.499Z,0.40
2019-03-31T21:24:03.158Z,0.40
2019-03-31T21:26:49.353Z,0.40
2019-03-31T21:29:22.978Z,0.40
2019-03-31T21:32:01.602Z,0.40
2019-03-31T21:34:35.319Z,0.20
2019-03-31T21:37:18.912Z,0.20
2019-03-31T21:39:52.643Z,0.30
2019-03-31T21:42:31.410Z,0.30
2019-03-31T21:45:07.634Z,0.30
2019-03-31T21:47:48.359Z,0.20
2019-03-31T21:50:22.271Z,0.20
2019-03-31T21:52:59.822Z,0.20
2019-03-31T21:55:33.681Z,0.20
2019-03-31T21:58:07.345Z,0.10
2019-03-31T22:00:48.769Z,0.10
2019-03-31T22:03:27.455Z,0.20
2019-03-31T22:06:01.160Z,0.00
2019-03-31T22:08:41.138Z,0.00
2019-03-31T22:11:14.907Z,0.00
2019-03-31T22:13:51.840Z,0.00
2019-03-31T22:16:25.542Z,-0.20
2019-03-31T22:22:06.197Z,-0.10
2019-03-31T22:24:40.246Z,-0.10
2019-03-31T22:27:18.178Z,-0.20
2019-03-31T22:29:51.874Z,-0.20
2019-03-31T22:32:25.466Z,-0.20
2019-03-31T22:35:06.043Z,-0.30
2019-03-31T22:37:39.679Z,-0.40
2019-03-31T22:40:22.847Z,-0.40
2019-03-31T22:42:56.506Z,-0.60
2019-03-31T22:45:30.732Z,-0.60
2019-03-31T22:48:04.454Z,-0.60
2019-03-31T22:50:38.341Z,-0.50
2019-03-31T22:53:11.975Z,-0.70
2019-03-31T22:55:47.997Z,-0.60
2019-03-31T22:58:21.633Z,-0.70
2019-03-31T23:01:04.561Z,-0.70
2019-03-31T23:03:38.637Z,-0.80
2019-03-31T23:06:15.699Z,-0.80
2019-03-31T23:08:49.325Z,-0.70
2019-03-31T23:11:25.038Z,-0.80
2019-03-31T23:13:59.004Z,-0.80
2019-03-31T23:16:32.674Z,-0.90
2019-03-31T23:19:24.691Z,-0.90
2019-03-31T23:22:05.803Z,-0.90
2019-03-31T23:24:39.814Z,-0.90
2019-03-31T23:27:13.768Z,-0.80
2019-03-31T23:29:47.402Z,-0.90
2019-03-31T23:32:22.781Z,-0.90
2019-03-31T23:34:56.721Z,-0.90
2019-03-31T23:37:52.083Z,-0.80
2019-03-31T23:40:25.785Z,-0.90
2019-03-31T23:43:07.091Z,-0.90
2019-03-31T23:45:40.751Z,-1.00
2019-03-31T23:48:41.814Z,-0.90
2019-03-31T23:51:15.581Z,-0.90
2019-03-31T23:53:49.205Z,-1.00
2019-03-31T23:56:26.983Z,-1.00
2019-03-31T23:59:00.630Z,-1.00
